Melody — 3FBS7 — position and weather

sailwx.info

Track history (hours):
 
Tides and Currents Weather Stations Pressure Air Temp Water Temp Dewpoint Dewpoint Depression Visibility Wind Speed Wind Dir Waves Ship Positions

Melody

Operator: Mediterranean Shipping Company

Last reported at 2017-Nov-19 19:11 UTC. Time now 2017-Nov-23 00:22 UTC.
Position N 29°23' W 094°48'.

Length 225 m; draft 11.5 m.

Type: Tanker. MMSI: 371669000.

Date/timePositionNaut miles runAvg speedWind from/ knotsBaromVisibWave heightAir tempDewpointWater temp
2017-Nov-19 19:11N 29°23' W 094°48'210.4
2017-Nov-19 18:58N 29°25' W 094°49'510.1
2017-Nov-19 18:30N 29°29' W 094°52'510.1
2017-Nov-19 18:00N 29°33' W 094°55'510.2
2017-Nov-19 17:30N 29°38' W 094°58'5 9.1
2017-Nov-19 17:00N 29°42' W 094°60'3 6.7
2017-Nov-19 16:30N 29°44' W 095°03'3 5.9
2017-Nov-19 16:00N 29°45' W 095°06'2 0.0
2017-Nov-17 16:34N 29°44' W 095°07'0 1.4
2017-Nov-17 16:30N 29°44' W 095°07'3 5.1
2017-Nov-17 16:00N 29°46' W 095°05'3 6.5
2017-Nov-17 15:30N 29°44' W 095°02'3 7.0
2017-Nov-17 15:00N 29°41' W 094°59'510.5
2017-Nov-17 14:30N 29°37' W 094°57'611.9
2017-Nov-17 14:00N 29°32' W 094°53'612.1
2017-Nov-17 13:30N 29°26' W 094°50'611.9
2017-Nov-17 13:00N 29°21' W 094°47'  
Track history (hours):
 
Tides and Currents Weather Stations Pressure Air Temp Water Temp Dewpoint Dewpoint Depression Visibility Wind Speed Wind Dir Waves Ship Positions

Melody

Operator: Mediterranean Shipping Company

Last reported at 2017-Nov-19 19:11 UTC. Time now 2017-Nov-23 00:22 UTC.
Position N 29°23' W 094°48'.

Length 225 m; draft 11.5 m.

Type: Tanker. MMSI: 371669000.

Date/timePositionNaut miles runAvg speedWind from/ knotsBaromVisibWave heightAir tempDewpointWater temp
2017-Nov-19 19:11N 29°23' W 094°48'210.4
2017-Nov-19 18:58N 29°25' W 094°49'510.1
2017-Nov-19 18:30N 29°29' W 094°52'510.1
2017-Nov-19 18:00N 29°33' W 094°55'510.2
2017-Nov-19 17:30N 29°38' W 094°58'5 9.1
2017-Nov-19 17:00N 29°42' W 094°60'3 6.7
2017-Nov-19 16:30N 29°44' W 095°03'3 5.9
2017-Nov-19 16:00N 29°45' W 095°06'2 0.0
2017-Nov-17 16:34N 29°44' W 095°07'0 1.4
2017-Nov-17 16:30N 29°44' W 095°07'3 5.1
2017-Nov-17 16:00N 29°46' W 095°05'3 6.5
2017-Nov-17 15:30N 29°44' W 095°02'3 7.0
2017-Nov-17 15:00N 29°41' W 094°59'510.5
2017-Nov-17 14:30N 29°37' W 094°57'611.9
2017-Nov-17 14:00N 29°32' W 094°53'612.1
2017-Nov-17 13:30N 29°26' W 094°50'611.9
2017-Nov-17 13:00N 29°21' W 094°47'  

Dump ship's entire track history